Time;durP1;ratioP1;P1;durP2;ratioP2;P2;SDS_P1;SDS_P2;PMS_P1;PMS_P2;Temp;Humidity;BMP_temperature;BMP_pressure;BME280_temperature;BME280_humidity;BME280_pressure;Samples;Min_cycle;Max_cycle;Signal;HPM_P1;HPM_P2
2023/05/12 00:00:54;;;;;;;20.98;11.38;;;13.50;99.90;;;;;;5016143;28;20074;-60
2023/05/12 00:03:23;;;;;;;18.58;9.88;;;13.60;99.90;;;;;;5036490;28;20029;-59
2023/05/12 00:05:51;;;;;;;17.52;8.80;;;13.70;99.90;;;;;;5037025;28;20032;-59
2023/05/12 00:08:18;;;;;;;20.98;10.02;;;13.80;99.90;;;;;;5037034;28;20037;-60
2023/05/12 00:10:46;;;;;;;18.02;8.85;;;13.90;99.90;;;;;;5040507;28;21085;-64
2023/05/12 00:13:13;;;;;;;20.83;8.95;;;14.00;99.90;;;;;;5026358;28;20028;-60
2023/05/12 00:15:42;;;;;;;21.45;9.48;;;14.20;99.90;;;;;;5023414;28;20037;-60
2023/05/12 00:18:09;;;;;;;15.05;7.78;;;14.40;99.90;;;;;;5025643;28;20078;-62
2023/05/12 00:20:37;;;;;;;16.38;8.90;;;14.60;99.90;;;;;;5045781;28;20253;-63
2023/05/12 00:23:05;;;;;;;13.02;6.95;;;14.70;99.90;;;;;;5023769;28;20596;-63
2023/05/12 00:25:32;;;;;;;11.88;6.75;;;14.80;99.90;;;;;;5044972;28;20033;-63
2023/05/12 00:28:00;;;;;;;14.77;6.13;;;14.80;99.90;;;;;;5039914;28;20056;-63
2023/05/12 00:30:27;;;;;;;13.38;5.25;;;15.00;99.90;;;;;;5017171;28;20033;-63
2023/05/12 00:32:55;;;;;;;10.20;4.75;;;15.10;99.90;;;;;;5035009;28;20055;-63
2023/05/12 00:35:22;;;;;;;9.52;4.35;;;15.30;99.90;;;;;;5044844;28;20036;-63
2023/05/12 00:37:50;;;;;;;9.13;4.80;;;15.50;99.90;;;;;;5024033;28;20045;-63
2023/05/12 00:40:17;;;;;;;12.85;4.68;;;15.70;99.90;;;;;;5026214;28;20497;-63
2023/05/12 00:42:45;;;;;;;10.88;4.22;;;15.80;99.90;;;;;;5040252;28;20584;-63
2023/05/12 00:45:12;;;;;;;10.60;4.15;;;16.00;99.90;;;;;;5015128;28;20022;-62
2023/05/12 00:47:40;;;;;;;11.07;4.00;;;16.10;99.90;;;;;;5039720;28;20049;-62
2023/05/12 00:50:08;;;;;;;10.30;4.28;;;16.20;99.90;;;;;;5036521;28;20035;-63
2023/05/12 00:52:36;;;;;;;7.30;3.67;;;16.30;99.90;;;;;;5036617;28;20037;-63
2023/05/12 00:55:04;;;;;;;8.18;4.30;;;16.60;99.90;;;;;;5041947;28;20029;-63
2023/05/12 00:57:32;;;;;;;12.77;3.88;;;16.70;99.90;;;;;;5027908;28;20029;-63
2023/05/12 00:59:59;;;;;;;8.73;3.85;;;16.80;99.90;;;;;;5046684;28;20056;-63
2023/05/12 01:02:27;;;;;;;9.57;3.60;;;16.90;99.90;;;;;;5042986;28;20035;-63
2023/05/12 01:04:54;;;;;;;9.60;3.88;;;17.10;99.90;;;;;;5034002;28;20025;-63
2023/05/12 01:07:24;;;;;;;12.43;4.80;;;17.20;99.90;;;;;;5040548;28;20474;-64
2023/05/12 01:09:55;;;;;;;8.52;4.43;;;17.30;99.90;;;;;;5043085;28;20064;-62
2023/05/12 01:12:26;;;;;;;7.47;3.75;;;17.40;99.90;;;;;;5047420;28;20052;-63
2023/05/12 01:14:56;;;;;;;9.10;4.00;;;17.60;99.90;;;;;;5050035;28;20029;-63
2023/05/12 01:17:34;;;;;;;14.02;5.65;;;17.70;99.90;;;;;;5049292;28;20115;-63
2023/05/12 01:20:05;;;;;;;10.43;4.25;;;17.80;99.90;;;;;;5029001;28;20032;-62
2023/05/12 01:22:34;;;;;;;10.68;4.40;;;17.90;99.90;;;;;;5041183;28;20032;-63
2023/05/12 01:25:05;;;;;;;6.43;3.65;;;17.90;99.90;;;;;;5046282;28;20025;-62
2023/05/12 01:27:34;;;;;;;7.35;3.47;;;17.80;99.90;;;;;;5040440;28;20037;-62
2023/05/12 01:30:03;;;;;;;7.75;3.13;;;17.90;99.90;;;;;;5050135;28;20030;-63
2023/05/12 01:32:30;;;;;;;7.85;2.90;;;18.10;99.90;;;;;;5045832;28;20028;-63
2023/05/12 01:34:58;;;;;;;5.47;2.60;;;18.20;99.90;;;;;;5039874;28;20033;-62
2023/05/12 01:37:25;;;;;;;9.07;3.10;;;18.30;99.90;;;;;;5047783;28;20024;-63
2023/05/12 01:39:54;;;;;;;8.20;3.20;;;18.50;99.90;;;;;;5049101;28;20510;-63
2023/05/12 01:42:21;;;;;;;5.43;2.05;;;18.50;99.90;;;;;;5028962;28;20091;-62
2023/05/12 01:44:49;;;;;;;7.45;2.70;;;18.60;99.90;;;;;;5027293;28;20027;-62
2023/05/12 01:47:16;;;;;;;7.00;2.70;;;18.70;99.90;;;;;;5047695;28;20032;-63
2023/05/12 01:49:44;;;;;;;8.13;2.95;;;18.80;99.90;;;;;;5041998;28;20029;-62
2023/05/12 01:52:12;;;;;;;6.50;2.97;;;18.90;99.90;;;;;;5047681;28;20108;-62
2023/05/12 01:54:39;;;;;;;9.05;2.95;;;18.90;99.90;;;;;;5039128;28;20033;-62
2023/05/12 01:57:07;;;;;;;10.25;3.28;;;19.00;99.90;;;;;;5048990;28;20025;-62
2023/05/12 01:59:34;;;;;;;4.63;2.00;;;19.10;99.90;;;;;;5046318;28;20049;-62
2023/05/12 02:02:02;;;;;;;7.35;2.45;;;19.10;99.90;;;;;;5044776;28;20075;-62
2023/05/12 02:04:30;;;;;;;7.90;2.15;;;19.20;99.90;;;;;;5046876;28;20053;-62
2023/05/12 02:06:57;;;;;;;5.68;2.38;;;19.30;99.90;;;;;;5039319;28;20083;-63
2023/05/12 02:09:25;;;;;;;8.52;2.85;;;19.40;99.90;;;;;;5048118;28;20048;-62
2023/05/12 02:11:53;;;;;;;13.23;3.83;;;19.50;99.90;;;;;;5045368;28;20104;-63
2023/05/12 02:14:20;;;;;;;11.57;2.92;;;19.50;99.90;;;;;;5037108;28;20032;-63
2023/05/12 02:16:51;;;;;;;7.85;2.45;;;19.40;99.90;;;;;;5046520;28;20021;-62
2023/05/12 02:19:20;;;;;;;9.95;2.10;;;19.50;99.90;;;;;;5045187;28;20025;-63
2023/05/12 02:21:48;;;;;;;5.95;1.98;;;19.70;99.90;;;;;;5046663;28;20028;-63
2023/05/12 02:24:15;;;;;;;5.43;1.90;;;19.90;99.90;;;;;;5041293;28;20401;-63
2023/05/12 02:26:43;;;;;;;6.93;2.45;;;20.00;99.90;;;;;;5039458;28;20474;-62
2023/05/12 02:29:11;;;;;;;8.18;2.90;;;20.10;99.90;;;;;;5046359;28;20064;-63
2023/05/12 02:31:38;;;;;;;11.30;2.65;;;20.20;99.90;;;;;;5035543;28;20044;-62
2023/05/12 02:34:06;;;;;;;10.90;2.53;;;20.20;99.90;;;;;;5033535;28;20033;-62
2023/05/12 02:36:33;;;;;;;7.10;2.42;;;20.30;99.90;;;;;;5048828;28;20127;-62
2023/05/12 02:39:01;;;;;;;6.43;2.70;;;20.30;99.90;;;;;;5045451;28;20036;-62
2023/05/12 02:41:28;;;;;;;10.82;2.33;;;20.50;99.90;;;;;;5044877;28;20429;-62
2023/05/12 02:43:55;;;;;;;7.30;2.78;;;20.60;99.90;;;;;;5045933;28;20064;-62
2023/05/12 02:46:23;;;;;;;7.55;2.50;;;20.70;99.90;;;;;;5018796;28;20386;-63
2023/05/12 02:48:50;;;;;;;6.35;2.10;;;20.80;99.90;;;;;;5047704;28;20064;-62
2023/05/12 02:51:18;;;;;;;9.82;2.13;;;20.80;99.90;;;;;;5039230;28;20021;-63
2023/05/12 02:53:45;;;;;;;6.60;2.15;;;20.90;99.90;;;;;;5037792;28;20029;-62
2023/05/12 02:56:13;;;;;;;6.15;2.17;;;21.00;99.90;;;;;;5044372;28;20055;-62
2023/05/12 02:58:41;;;;;;;5.38;1.80;;;21.10;99.90;;;;;;5045249;28;20033;-62
2023/05/12 03:01:08;;;;;;;8.15;3.38;;;21.20;99.90;;;;;;5045976;28;20500;-62
2023/05/12 03:03:36;;;;;;;7.65;3.00;;;21.30;99.90;;;;;;5045126;28;20042;-63
2023/05/12 03:06:03;;;;;;;12.23;2.65;;;21.30;99.90;;;;;;5048853;28;20021;-63
2023/05/12 03:08:31;;;;;;;8.90;2.70;;;21.40;99.90;;;;;;5048178;28;20041;-62
2023/05/12 03:10:59;;;;;;;9.90;2.90;;;21.60;99.90;;;;;;5041856;28;20049;-63
2023/05/12 03:13:26;;;;;;;7.38;2.85;;;21.70;99.90;;;;;;5044682;28;20028;-62
2023/05/12 03:15:54;;;;;;;14.20;2.72;;;21.70;99.90;;;;;;5040724;28;20470;-62
2023/05/12 03:18:22;;;;;;;12.05;3.00;;;21.70;99.90;;;;;;5044083;28;20028;-62
2023/05/12 03:20:49;;;;;;;4.38;2.35;;;21.60;99.90;;;;;;5037537;28;20071;-63
2023/05/12 03:23:16;;;;;;;9.18;2.33;;;21.70;99.90;;;;;;5046914;28;20017;-63
2023/05/12 03:25:44;;;;;;;8.57;2.42;;;21.80;99.90;;;;;;5036532;28;20470;-62
2023/05/12 03:28:11;;;;;;;11.52;3.15;;;21.90;99.20;;;;;;5047553;28;20091;-63
2023/05/12 03:30:39;;;;;;;10.32;3.22;;;22.00;99.20;;;;;;5043768;28;20486;-62
2023/05/12 03:33:06;;;;;;;9.15;3.25;;;22.00;98.30;;;;;;5045716;28;20029;-62
2023/05/12 03:35:34;;;;;;;7.15;2.92;;;22.00;94.00;;;;;;5022935;28;20079;-62
2023/05/12 03:38:01;;;;;;;8.77;3.35;;;22.10;95.50;;;;;;5036231;28;20029;-62
2023/05/12 03:40:29;;;;;;;8.38;2.53;;;22.00;92.60;;;;;;5042592;28;20100;-63
2023/05/12 03:42:57;;;;;;;9.70;2.33;;;22.00;91.90;;;;;;5039777;28;20060;-63
2023/05/12 03:45:24;;;;;;;6.25;1.75;;;22.00;91.00;;;;;;5037858;28;20017;-62
2023/05/12 03:47:51;;;;;;;7.97;2.42;;;21.90;92.60;;;;;;5038392;28;20052;-59
2023/05/12 03:50:19;;;;;;;6.60;2.90;;;22.00;90.70;;;;;;5039544;28;20382;-60
2023/05/12 03:52:47;;;;;;;3.95;1.35;;;22.10;90.40;;;;;;5029552;28;20414;-60
2023/05/12 03:55:14;;;;;;;5.65;1.65;;;22.10;89.60;;;;;;5027447;28;20378;-57
2023/05/12 03:57:42;;;;;;;5.53;2.03;;;22.20;89.80;;;;;;5041943;28;20017;-59
2023/05/12 04:00:10;;;;;;;7.85;2.08;;;22.30;90.40;;;;;;5040847;28;20029;-59
2023/05/12 04:02:37;;;;;;;5.05;1.60;;;22.30;88.30;;;;;;5041160;28;20490;-59
2023/05/12 04:05:07;;;;;;;6.80;2.25;;;22.30;87.80;;;;;;5034098;28;20390;-59
2023/05/12 04:07:34;;;;;;;9.30;2.42;;;22.30;87.00;;;;;;5043986;28;20017;-59
2023/05/12 04:10:02;;;;;;;9.85;1.73;;;22.30;86.30;;;;;;5040164;28;20389;-59
2023/05/12 04:12:29;;;;;;;5.45;1.55;;;22.30;86.90;;;;;;5027900;28;20024;-60
2023/05/12 04:14:57;;;;;;;3.47;1.08;;;22.40;86.60;;;;;;5046750;28;20029;-59
2023/05/12 04:17:24;;;;;;;3.45;1.38;;;22.50;85.70;;;;;;5050817;28;20029;-59
2023/05/12 04:19:52;;;;;;;4.55;1.13;;;22.50;88.50;;;;;;5034830;28;20064;-59
2023/05/12 04:22:19;;;;;;;5.70;1.08;;;22.50;85.10;;;;;;5031197;28;20017;-59
2023/05/12 04:24:47;;;;;;;5.32;0.77;;;22.50;82.70;;;;;;5022031;28;20034;-59
2023/05/12 04:27:14;;;;;;;3.72;1.13;;;22.50;79.00;;;;;;5043155;28;20021;-60
2023/05/12 04:29:42;;;;;;;3.88;1.50;;;22.40;80.80;;;;;;5037023;28;20048;-59
2023/05/12 04:32:10;;;;;;;2.47;0.98;;;22.40;81.00;;;;;;5044938;28;20032;-59
2023/05/12 04:34:37;;;;;;;4.28;1.00;;;22.40;82.60;;;;;;5046037;28;20163;-59
2023/05/12 04:37:05;;;;;;;2.70;1.00;;;22.40;82.80;;;;;;5052358;28;20021;-59
2023/05/12 04:39:32;;;;;;;2.60;1.02;;;22.40;83.00;;;;;;5038292;28;20018;-59
2023/05/12 04:42:03;;;;;;;8.90;1.42;;;22.40;83.20;;;;;;5016999;28;20037;-59
2023/05/12 04:44:30;;;;;;;3.30;1.05;;;22.40;84.60;;;;;;5021543;28;20024;-61
2023/05/12 04:46:58;;;;;;;2.42;1.00;;;22.30;84.80;;;;;;5038562;28;20029;-60
2023/05/12 04:49:25;;;;;;;2.25;0.90;;;22.30;79.20;;;;;;5057857;28;20398;-59
2023/05/12 04:51:53;;;;;;;2.03;0.80;;;22.20;74.70;;;;;;5043121;28;20044;-59
2023/05/12 04:54:21;;;;;;;4.40;1.08;;;22.20;74.30;;;;;;5040527;28;20049;-59
2023/05/12 04:56:48;;;;;;;5.07;0.98;;;22.20;73.90;;;;;;5026549;28;20029;-59
2023/05/12 04:59:16;;;;;;;1.67;0.82;;;22.20;73.30;;;;;;5027320;28;20122;-60
2023/05/12 05:01:44;;;;;;;1.95;1.05;;;22.10;72.10;;;;;;5035527;28;20036;-58
2023/05/12 05:04:11;;;;;;;3.40;1.30;;;22.00;71.40;;;;;;5037756;28;20108;-58
2023/05/12 05:06:38;;;;;;;2.63;1.08;;;22.00;70.80;;;;;;5016496;28;20104;-58
2023/05/12 05:09:06;;;;;;;4.47;1.23;;;21.90;70.80;;;;;;5042057;28;20087;-57
2023/05/12 05:11:34;;;;;;;3.75;0.90;;;21.80;74.10;;;;;;5042584;28;20029;-58
2023/05/12 05:14:01;;;;;;;2.75;0.90;;;21.80;75.90;;;;;;5037456;28;20036;-58
2023/05/12 05:16:29;;;;;;;3.38;1.10;;;21.70;75.80;;;;;;5025032;28;20091;-58
2023/05/12 05:18:56;;;;;;;3.42;1.20;;;21.70;76.60;;;;;;5024284;28;20064;-58
2023/05/12 05:21:24;;;;;;;5.28;1.25;;;21.70;76.70;;;;;;5037513;28;20032;-58
2023/05/12 05:23:52;;;;;;;6.05;1.75;;;21.70;75.40;;;;;;5039032;28;20128;-58
2023/05/12 05:26:20;;;;;;;3.33;0.93;;;21.70;74.00;;;;;;5037333;28;20025;-58
2023/05/12 05:28:48;;;;;;;3.28;1.10;;;21.70;72.80;;;;;;5019532;28;20041;-59
2023/05/12 05:31:16;;;;;;;4.35;1.70;;;21.70;73.60;;;;;;5038391;28;20033;-62
2023/05/12 05:33:44;;;;;;;7.43;1.40;;;21.60;72.90;;;;;;5017275;28;20031;-58
2023/05/12 05:36:13;;;;;;;5.15;1.60;;;21.60;73.40;;;;;;5038128;28;20032;-59
2023/05/12 05:38:41;;;;;;;2.05;1.17;;;21.60;71.00;;;;;;5039061;28;20025;-58
2023/05/12 05:41:09;;;;;;;5.47;1.55;;;21.50;71.40;;;;;;5035236;28;20120;-60
2023/05/12 05:43:36;;;;;;;2.50;1.10;;;21.50;72.10;;;;;;5037643;28;20494;-58
2023/05/12 05:46:05;;;;;;;2.97;0.90;;;21.40;71.50;;;;;;5018746;28;20036;-59
2023/05/12 05:48:35;;;;;;;4.82;1.13;;;21.50;73.40;;;;;;5040152;28;20036;-59
2023/05/12 05:51:03;;;;;;;3.30;1.20;;;21.40;73.30;;;;;;5035855;28;20048;-58
2023/05/12 05:53:31;;;;;;;3.40;1.20;;;21.30;74.70;;;;;;5032915;28;20559;-59
2023/05/12 05:56:00;;;;;;;4.60;1.38;;;21.20;75.00;;;;;;5036782;28;20320;-58
2023/05/12 05:58:27;;;;;;;2.55;1.23;;;21.10;74.80;;;;;;5049405;28;20032;-59
2023/05/12 06:00:55;;;;;;;3.15;1.20;;;20.90;74.90;;;;;;5025883;28;20057;-59
2023/05/12 06:03:24;;;;;;;3.90;1.58;;;20.80;76.90;;;;;;5034215;28;20028;-59
2023/05/12 06:05:51;;;;;;;3.35;1.55;;;20.70;78.10;;;;;;5046787;28;20021;-59
2023/05/12 06:08:19;;;;;;;2.58;1.02;;;20.70;76.80;;;;;;5047350;28;20112;-60
2023/05/12 06:10:47;;;;;;;1.35;0.90;;;20.70;74.60;;;;;;5025924;28;20428;-59
2023/05/12 06:13:14;;;;;;;5.20;1.67;;;20.60;75.60;;;;;;5045234;28;20127;-58
2023/05/12 06:15:42;;;;;;;3.35;1.42;;;20.50;75.50;;;;;;5039050;28;20018;-58
2023/05/12 06:18:09;;;;;;;4.60;1.38;;;20.40;77.10;;;;;;5033861;28;20102;-58
2023/05/12 06:20:37;;;;;;;5.03;1.30;;;20.20;77.90;;;;;;5047978;28;20024;-58
2023/05/12 06:23:05;;;;;;;4.40;1.52;;;20.00;78.40;;;;;;5050287;28;20029;-58
2023/05/12 06:25:33;;;;;;;8.02;1.30;;;19.90;77.40;;;;;;5041427;28;20741;-58
2023/05/12 06:28:00;;;;;;;4.63;1.42;;;19.70;77.70;;;;;;5049916;28;20137;-58
2023/05/12 06:30:28;;;;;;;5.22;1.92;;;19.60;79.70;;;;;;5046302;28;20059;-58
2023/05/12 06:32:55;;;;;;;7.65;3.28;;;19.50;82.00;;;;;;5062471;28;20397;-58
2023/05/12 06:35:22;;;;;;;6.45;2.42;;;19.30;83.20;;;;;;5052854;28;20025;-58
2023/05/12 06:37:50;;;;;;;7.50;2.55;;;19.20;85.00;;;;;;5038233;28;20053;-58
2023/05/12 06:40:18;;;;;;;2.53;1.40;;;19.10;87.30;;;;;;5029522;28;20083;-59
2023/05/12 06:42:45;;;;;;;2.20;1.20;;;19.00;90.00;;;;;;5045941;28;20029;-58
2023/05/12 06:45:12;;;;;;;2.75;0.95;;;19.00;92.00;;;;;;5047764;28;20052;-58
2023/05/12 06:47:40;;;;;;;4.55;1.60;;;18.80;92.70;;;;;;5041425;28;20034;-58
2023/05/12 06:50:08;;;;;;;6.40;1.60;;;18.70;93.90;;;;;;5039697;28;20033;-58
2023/05/12 06:52:36;;;;;;;4.78;2.38;;;18.40;95.50;;;;;;5045852;28;20032;-58
2023/05/12 06:55:04;;;;;;;4.68;1.13;;;18.30;97.00;;;;;;5047730;28;20060;-58
2023/05/12 06:57:32;;;;;;;5.65;1.35;;;18.20;97.60;;;;;;5045921;28;20028;-58
2023/05/12 07:00:01;;;;;;;3.53;1.33;;;18.10;98.10;;;;;;5045473;28;20496;-58
2023/05/12 07:02:30;;;;;;;3.20;1.40;;;17.90;98.60;;;;;;5025617;28;20036;-58
2023/05/12 07:04:57;;;;;;;2.45;1.30;;;17.80;98.80;;;;;;5036533;28;20133;-58
2023/05/12 07:07:24;;;;;;;4.03;1.52;;;17.60;98.70;;;;;;5029005;28;20017;-58
2023/05/12 07:09:52;;;;;;;2.88;1.70;;;17.50;99.90;;;;;;5036463;28;20047;-59
2023/05/12 07:12:19;;;;;;;4.55;1.70;;;17.30;99.90;;;;;;5025627;28;20108;-60
2023/05/12 07:14:47;;;;;;;4.60;1.92;;;17.20;99.90;;;;;;5030785;28;20530;-59
2023/05/12 07:17:14;;;;;;;4.53;1.58;;;17.10;99.90;;;;;;5042624;28;20419;-52
2023/05/12 07:19:42;;;;;;;4.70;2.15;;;17.10;99.90;;;;;;5048088;28;20548;-54
2023/05/12 07:22:09;;;;;;;6.57;1.98;;;17.00;99.90;;;;;;5046130;28;20533;-55
2023/05/12 07:24:37;;;;;;;5.18;1.70;;;17.00;99.90;;;;;;5045815;28;20036;-53
2023/05/12 07:27:05;;;;;;;6.93;2.33;;;17.00;99.90;;;;;;5025889;28;20036;-54
2023/05/12 07:29:32;;;;;;;15.38;2.78;;;16.90;99.90;;;;;;5046162;28;20037;-52
2023/05/12 07:32:00;;;;;;;6.10;2.25;;;16.80;99.90;;;;;;5024795;28;20030;-56
2023/05/12 07:34:27;;;;;;;9.45;2.33;;;16.70;99.90;;;;;;5035454;28;20457;-51
2023/05/12 07:36:55;;;;;;;5.28;1.95;;;16.60;99.90;;;;;;5041319;28;20029;-54
2023/05/12 07:39:22;;;;;;;5.97;1.70;;;16.60;99.90;;;;;;5041076;28;20039;-52
2023/05/12 07:41:52;;;;;;;7.53;2.75;;;16.60;99.90;;;;;;5039017;28;20037;-54
2023/05/12 07:44:20;;;;;;;8.80;3.00;;;16.50;99.90;;;;;;5026054;28;20055;-55
2023/05/12 07:46:47;;;;;;;6.78;2.75;;;16.40;99.90;;;;;;5045375;28;20047;-56
2023/05/12 07:49:15;;;;;;;5.07;2.15;;;16.40;99.90;;;;;;5048058;28;20053;-52
2023/05/12 07:51:42;;;;;;;6.00;2.00;;;16.30;99.90;;;;;;5037302;28;20024;-53
2023/05/12 07:54:10;;;;;;;5.80;2.10;;;16.30;99.90;;;;;;5031181;28;20032;-59
2023/05/12 07:56:37;;;;;;;6.95;2.20;;;16.20;99.90;;;;;;5042769;28;20707;-60
2023/05/12 07:59:05;;;;;;;8.98;2.28;;;16.10;99.90;;;;;;5043788;28;20039;-61
2023/05/12 08:01:33;;;;;;;14.88;3.45;;;16.10;99.90;;;;;;5027018;28;20044;-59
2023/05/12 08:04:01;;;;;;;10.48;5.45;;;16.00;99.90;;;;;;5046682;28;20025;-59
2023/05/12 08:06:28;;;;;;;8.90;4.10;;;16.00;99.90;;;;;;5045802;28;20029;-60
2023/05/12 08:08:57;;;;;;;11.82;5.10;;;15.90;99.90;;;;;;5036526;28;20045;-60
2023/05/12 08:11:25;;;;;;;10.52;3.38;;;15.90;99.90;;;;;;5031549;28;20065;-59
2023/05/12 08:13:53;;;;;;;10.50;3.80;;;15.80;99.90;;;;;;5040246;28;20071;-60
2023/05/12 08:16:21;;;;;;;9.85;2.60;;;15.70;99.90;;;;;;5040970;28;20026;-59
2023/05/12 08:18:48;;;;;;;8.02;2.65;;;15.70;99.90;;;;;;5040037;28;20033;-59
2023/05/12 08:21:16;;;;;;;6.63;2.25;;;15.60;99.90;;;;;;5041029;28;20056;-60
2023/05/12 08:23:43;;;;;;;9.32;3.45;;;15.50;99.90;;;;;;5040388;28;20053;-60
2023/05/12 08:26:11;;;;;;;7.65;2.92;;;15.40;99.90;;;;;;5041789;28;20021;-59
2023/05/12 08:28:38;;;;;;;8.82;3.25;;;15.30;99.90;;;;;;5024809;28;20045;-59
2023/05/12 08:31:06;;;;;;;4.70;2.65;;;15.20;99.90;;;;;;5039202;28;20694;-59
2023/05/12 08:33:36;;;;;;;8.48;4.07;;;15.10;99.90;;;;;;5040923;28;20498;-59
2023/05/12 08:36:04;;;;;;;8.05;3.75;;;15.00;99.90;;;;;;5038678;28;20021;-59
2023/05/12 08:38:32;;;;;;;7.00;3.03;;;14.90;99.90;;;;;;5039824;28;20029;-59
2023/05/12 08:41:12;;;;;;;9.65;3.33;;;14.80;99.90;;;;;;5018893;28;20451;-59
2023/05/12 08:43:45;;;;;;;13.63;4.38;;;14.80;99.90;;;;;;5036327;28;20111;-60
2023/05/12 08:46:13;;;;;;;7.38;3.03;;;14.70;99.90;;;;;;5037414;28;20025;-60
2023/05/12 08:48:41;;;;;;;7.40;3.03;;;14.70;99.90;;;;;;5022862;28;20053;-60
2023/05/12 08:51:10;;;;;;;5.75;2.80;;;14.50;99.90;;;;;;5032934;28;20022;-60
2023/05/12 08:53:39;;;;;;;10.32;3.65;;;14.40;99.90;;;;;;5038894;28;20021;-61
2023/05/12 08:56:09;;;;;;;7.88;3.22;;;14.40;99.90;;;;;;5009907;28;20064;-61
2023/05/12 08:58:36;;;;;;;9.07;3.90;;;14.40;99.90;;;;;;5045123;28;20025;-61
2023/05/12 09:01:06;;;;;;;12.30;3.95;;;14.40;99.90;;;;;;5014089;28;20029;-61
2023/05/12 09:03:36;;;;;;;11.02;3.60;;;14.40;99.90;;;;;;5043755;28;20099;-60
2023/05/12 09:06:06;;;;;;;9.05;4.57;;;14.40;99.90;;;;;;5034301;28;20048;-60
2023/05/12 09:08:35;;;;;;;7.00;3.60;;;14.50;99.90;;;;;;5036352;28;20509;-60
2023/05/12 09:11:03;;;;;;;8.18;4.35;;;14.50;99.90;;;;;;5042642;28;20522;-60
2023/05/12 09:13:45;;;;;;;8.85;3.90;;;14.60;99.90;;;;;;5031484;28;21456;-61
2023/05/12 09:16:14;;;;;;;12.40;3.63;;;14.70;99.90;;;;;;5016632;28;20034;-60
2023/05/12 09:18:53;;;;;;;10.68;3.00;;;14.90;99.90;;;;;;5041531;28;20025;-61
2023/05/12 09:21:21;;;;;;;9.98;3.28;;;15.00;99.90;;;;;;5032232;28;20025;-60
2023/05/12 09:24:07;;;;;;;13.13;3.83;;;15.20;99.90;;;;;;5043801;28;20088;-61
2023/05/12 09:26:48;;;;;;;8.77;3.45;;;15.30;99.90;;;;;;5039944;28;20047;-61
2023/05/12 09:29:16;;;;;;;12.10;4.03;;;15.40;99.90;;;;;;5028598;28;20029;-61
2023/05/12 09:31:54;;;;;;;9.57;3.63;;;15.40;99.90;;;;;;5049097;28;20406;-61
2023/05/12 09:34:39;;;;;;;16.73;3.20;;;15.50;99.90;;;;;;5038146;28;20075;-60
2023/05/12 09:37:07;;;;;;;13.05;3.05;;;15.60;99.90;;;;;;5040426;28;20020;-60
2023/05/12 09:39:35;;;;;;;14.68;4.25;;;15.60;99.90;;;;;;5048627;28;20069;-61
2023/05/12 09:42:12;;;;;;;9.73;3.85;;;15.70;99.90;;;;;;5025897;28;20056;-60
2023/05/12 09:44:40;;;;;;;8.02;4.10;;;15.60;99.90;;;;;;5018094;28;20041;-61
2023/05/12 09:47:09;;;;;;;10.75;3.88;;;15.60;99.90;;;;;;5037041;28;20039;-61
2023/05/12 09:49:37;;;;;;;12.02;3.70;;;15.70;99.90;;;;;;5044487;28;20124;-61
2023/05/12 09:52:04;;;;;;;12.07;4.30;;;15.70;99.90;;;;;;5041282;28;20025;-61
2023/05/12 09:54:33;;;;;;;9.13;3.95;;;15.60;99.90;;;;;;5041605;28;20048;-61
2023/05/12 09:57:03;;;;;;;9.75;3.50;;;15.40;99.90;;;;;;5042125;28;20066;-61
2023/05/12 09:59:37;;;;;;;11.25;3.92;;;15.30;99.90;;;;;;5044861;28;20061;-62
2023/05/12 10:02:08;;;;;;;13.07;3.97;;;15.20;99.90;;;;;;5038863;28;20026;-61
2023/05/12 10:04:48;;;;;;;9.23;3.90;;;15.10;99.90;;;;;;5020079;28;20033;-61
2023/05/12 10:07:17;;;;;;;11.10;3.58;;;15.10;99.90;;;;;;5045335;28;20060;-64
2023/05/12 10:09:47;;;;;;;14.32;4.18;;;15.10;99.90;;;;;;5045209;28;20041;-61
2023/05/12 10:12:15;;;;;;;11.13;3.83;;;15.10;99.90;;;;;;5031886;28;20022;-61
2023/05/12 10:14:43;;;;;;;11.07;3.42;;;14.90;99.90;;;;;;5042260;28;20048;-61
2023/05/12 10:17:11;;;;;;;14.43;4.97;;;14.70;99.90;;;;;;5049084;28;20065;-61
2023/05/12 10:19:40;;;;;;;12.15;4.15;;;14.70;99.90;;;;;;5033374;28;20029;-62
2023/05/12 10:22:10;;;;;;;12.05;3.85;;;14.60;99.90;;;;;;5035348;28;20036;-61
2023/05/12 10:24:39;;;;;;;17.33;4.70;;;14.50;99.90;;;;;;5038747;28;20021;-60
2023/05/12 10:27:07;;;;;;;9.98;3.55;;;14.50;99.90;;;;;;5042924;28;20045;-62
2023/05/12 10:29:36;;;;;;;15.20;4.72;;;14.50;99.90;;;;;;5028367;28;20037;-62
2023/05/12 10:32:05;;;;;;;11.88;3.80;;;14.60;99.90;;;;;;5046695;28;20386;-61
2023/05/12 10:34:37;;;;;;;10.93;4.25;;;14.70;99.90;;;;;;5042423;28;20030;-61
2023/05/12 10:37:12;;;;;;;12.90;4.28;;;14.80;99.90;;;;;;5041206;28;20025;-61
2023/05/12 10:39:50;;;;;;;10.50;3.90;;;14.80;99.90;;;;;;5040363;28;20079;-61
2023/05/12 10:42:25;;;;;;;13.32;4.75;;;14.70;99.90;;;;;;5037740;28;20108;-61
2023/05/12 10:44:56;;;;;;;11.43;3.78;;;14.70;99.90;;;;;;5047152;28;20028;-61
2023/05/12 10:47:37;;;;;;;14.38;4.45;;;14.80;99.90;;;;;;5044941;28;20021;-60
2023/05/12 10:50:05;;;;;;;12.85;4.07;;;14.80;99.90;;;;;;5035840;28;20041;-61
2023/05/12 10:52:32;;;;;;;7.25;3.67;;;14.90;99.90;;;;;;5019546;28;20025;-61
2023/05/12 10:55:02;;;;;;;13.48;3.88;;;14.80;99.90;;;;;;5043671;28;20437;-61
2023/05/12 10:57:31;;;;;;;7.05;3.58;;;14.80;99.90;;;;;;5044203;28;20021;-62
2023/05/12 11:00:00;;;;;;;7.28;3.63;;;14.60;99.90;;;;;;5042108;28;20083;-62
2023/05/12 11:02:33;;;;;;;10.15;3.63;;;14.50;99.90;;;;;;5039041;28;20051;-61
2023/05/12 11:05:05;;;;;;;12.90;4.28;;;14.40;99.90;;;;;;5033694;28;20152;-61
2023/05/12 11:07:33;;;;;;;9.57;3.42;;;14.30;99.90;;;;;;5025752;28;20044;-61
2023/05/12 11:10:04;;;;;;;10.23;4.47;;;14.30;99.90;;;;;;5040456;28;20490;-61
2023/05/12 11:12:36;;;;;;;15.75;4.80;;;14.30;99.90;;;;;;5038176;28;20032;-63
2023/05/12 11:15:05;;;;;;;18.45;4.47;;;14.40;99.90;;;;;;5041421;28;20087;-61
2023/05/12 11:17:32;;;;;;;15.40;4.60;;;14.40;99.90;;;;;;5013560;28;20067;-62
2023/05/12 11:20:00;;;;;;;13.20;5.07;;;14.40;99.90;;;;;;5028856;28;20055;-61
2023/05/12 11:22:28;;;;;;;16.40;4.72;;;14.40;99.90;;;;;;5018222;28;20041;-61
2023/05/12 11:24:55;;;;;;;14.50;4.93;;;14.40;99.90;;;;;;5042126;28;20034;-61
2023/05/12 11:27:23;;;;;;;9.80;4.75;;;14.40;99.90;;;;;;5047573;28;20048;-62
2023/05/12 11:30:03;;;;;;;17.92;4.85;;;14.40;99.90;;;;;;5028363;28;20044;-62
2023/05/12 11:32:30;;;;;;;12.10;5.30;;;14.40;99.90;;;;;;5036871;28;20052;-61
2023/05/12 11:35:18;;;;;;;17.70;5.38;;;14.50;99.90;;;;;;5042213;28;20025;-61
2023/05/12 11:37:46;;;;;;;10.13;4.82;;;14.40;99.90;;;;;;5033229;28;20055;-64
2023/05/12 11:40:19;;;;;;;22.35;5.63;;;14.50;99.90;;;;;;5039456;28;20033;-62
2023/05/12 11:42:50;;;;;;;13.95;4.43;;;14.40;99.90;;;;;;5036161;28;20375;-61
2023/05/12 11:45:22;;;;;;;15.57;5.88;;;14.40;99.90;;;;;;5043593;28;20505;-62
2023/05/12 11:47:50;;;;;;;18.80;5.57;;;14.40;99.90;;;;;;5039492;28;20070;-61
2023/05/12 11:50:24;;;;;;;14.38;5.28;;;14.40;99.90;;;;;;5036339;28;20037;-62
2023/05/12 11:52:52;;;;;;;14.85;8.05;;;14.40;99.90;;;;;;5033482;28;20032;-61
2023/05/12 11:55:24;;;;;;;27.23;17.02;;;14.40;99.90;;;;;;5036235;28;20025;-62
2023/05/12 11:58:01;;;;;;;28.98;17.08;;;14.30;99.90;;;;;;5044124;28;20060;-61
2023/05/12 12:00:31;;;;;;;33.50;13.05;;;14.30;99.90;;;;;;5039021;28;20025;-61
2023/05/12 12:03:12;;;;;;;22.00;12.98;;;14.30;99.90;;;;;;5041572;28;20022;-61
2023/05/12 12:05:42;;;;;;;23.80;13.35;;;14.20;99.90;;;;;;5036729;28;20512;-61
2023/05/12 12:08:14;;;;;;;39.15;25.52;;;14.20;99.90;;;;;;5019199;28;20042;-60
2023/05/12 12:10:45;;;;;;;34.10;22.63;;;14.30;99.90;;;;;;5034009;28;20023;-61
2023/05/12 12:13:20;;;;;;;52.30;38.45;;;14.20;99.90;;;;;;5040596;28;20033;-64
2023/05/12 12:15:49;;;;;;;40.50;30.40;;;14.30;99.90;;;;;;5042127;28;20049;-60
2023/05/12 12:18:17;;;;;;;27.98;18.92;;;14.20;99.90;;;;;;5040918;28;20036;-61
2023/05/12 12:20:48;;;;;;;19.00;10.07;;;14.20;99.90;;;;;;5019151;28;20053;-61
2023/05/12 12:23:16;;;;;;;12.05;6.30;;;14.10;99.90;;;;;;5028500;28;20028;-62
2023/05/12 12:25:43;;;;;;;11.70;4.60;;;14.00;99.90;;;;;;5034088;28;20063;-61
2023/05/12 12:28:11;;;;;;;15.02;5.15;;;13.90;99.90;;;;;;5047719;28;20035;-61
2023/05/12 12:30:39;;;;;;;11.10;4.60;;;13.80;99.90;;;;;;5037529;28;20057;-61
2023/05/12 12:33:06;;;;;;;18.27;6.18;;;13.70;99.90;;;;;;5045213;28;20021;-60
2023/05/12 12:35:34;;;;;;;10.43;5.35;;;13.60;99.90;;;;;;5032888;28;20021;-60
2023/05/12 12:38:01;;;;;;;13.85;5.20;;;13.60;99.90;;;;;;5044674;28;20067;-60
2023/05/12 12:40:30;;;;;;;15.43;6.00;;;13.50;99.90;;;;;;5041433;28;20048;-61
2023/05/12 12:42:57;;;;;;;17.98;7.03;;;13.50;99.90;;;;;;5045537;28;20029;-61
2023/05/12 12:45:25;;;;;;;15.02;5.10;;;13.40;99.90;;;;;;5042872;28;20082;-60
2023/05/12 12:47:53;;;;;;;12.35;6.88;;;13.30;99.90;;;;;;5037836;28;20041;-61
2023/05/12 12:50:21;;;;;;;12.43;5.38;;;13.30;99.90;;;;;;5040644;28;20025;-61